Time;durP1;ratioP1;P1;durP2;ratioP2;P2;SDS_P1;SDS_P2;PMS_P1;PMS_P2;Temp;Humidity;BMP_temperature;BMP_pressure;BME280_temperature;BME280_humidity;BME280_pressure;Samples;Min_cycle;Max_cycle;Signal;HPM_P1;HPM_P2
2021/03/27 00:00:38;;;;;;;23.33;8.98;;;;;;;3.71;100.00;101195.63;4950848;29;20038;-79
2021/03/27 00:03:07;;;;;;;24.38;8.63;;;;;;;3.69;100.00;101186.84;4950960;28;20391;-78
2021/03/27 00:05:47;;;;;;;24.70;9.23;;;;;;;3.71;100.00;101197.38;4989343;28;20022;-79
2021/03/27 00:08:27;;;;;;;25.38;8.63;;;;;;;3.74;100.00;101195.78;4989333;28;20031;-79
2021/03/27 00:10:58;;;;;;;25.35;10.23;;;;;;;3.67;100.00;101189.41;4987328;28;20226;-79
2021/03/27 00:13:37;;;;;;;25.33;9.65;;;;;;;3.78;100.00;101189.78;4989372;28;20030;-80
2021/03/27 00:16:29;;;;;;;26.83;10.82;;;;;;;3.81;100.00;101186.41;4988672;28;20077;-79
2021/03/27 00:19:04;;;;;;;27.27;12.00;;;;;;;3.77;100.00;101188.03;4991516;28;20033;-80
2021/03/27 00:21:35;;;;;;;28.10;10.82;;;;;;;3.76;100.00;101191.47;4990825;28;20046;-80
2021/03/27 00:24:27;;;;;;;28.30;12.20;;;;;;;3.75;100.00;101194.91;4977676;28;20038;-79
2021/03/27 00:27:00;;;;;;;31.00;13.70;;;;;;;3.86;100.00;101197.03;4973651;28;20042;-77
2021/03/27 00:29:28;;;;;;;;;;;;;;;3.86;100.00;101191.81;5021609;28;20454;-80
2021/03/27 00:32:01;;;;;;;30.83;13.55;;;;;;;3.73;100.00;101191.38;5064436;28;20015;-80
2021/03/27 00:34:30;;;;;;;24.90;9.00;;;;;;;3.74;100.00;101202.72;5076367;28;20020;-80
2021/03/27 00:37:00;;;;;;;28.08;11.65;;;;;;;3.72;100.00;101194.81;5095637;28;20024;-80
2021/03/27 00:39:37;;;;;;;28.00;11.52;;;;;;;3.73;100.00;101191.38;5077659;28;20492;-80
2021/03/27 00:42:09;;;;;;;23.00;7.80;;;;;;;3.83;100.00;101183.03;5093683;28;20608;-81
2021/03/27 00:44:42;;;;;;;27.30;10.27;;;;;;;3.73;100.00;101199.22;5093248;28;20036;-82
2021/03/27 00:47:12;;;;;;;28.17;10.50;;;;;;;3.75;100.00;101194.91;5093847;28;20066;-81
2021/03/27 00:49:44;;;;;;;25.60;9.57;;;;;;;3.71;100.00;101206.09;5095333;28;20024;-81
2021/03/27 00:52:11;;;;;;;24.70;8.75;;;;;;;3.78;100.00;101213.34;5095943;28;20074;-81
2021/03/27 00:55:04;;;;;;;23.65;8.25;;;;;;;3.78;100.00;101207.22;5094366;28;20393;-81
2021/03/27 00:57:34;;;;;;;20.85;6.32;;;;;;;3.88;100.00;101200.63;5093090;28;20040;-81
2021/03/27 01:00:08;;;;;;;21.25;6.43;;;;;;;3.89;100.00;101202.38;5091191;28;20548;-81
2021/03/27 01:02:38;;;;;;;22.02;6.57;;;;;;;3.86;100.00;101203.19;5096126;28;20020;-81
2021/03/27 01:05:08;;;;;;;20.65;6.10;;;;;;;3.84;100.00;101199.59;5094213;28;20123;-80
2021/03/27 01:07:36;;;;;;;19.48;5.75;;;;;;;3.81;100.00;101209.94;5095975;28;20015;-81
2021/03/27 01:10:10;;;;;;;22.17;6.68;;;;;;;3.80;100.00;101222.16;5095124;28;20035;-81
2021/03/27 01:12:39;;;;;;;22.27;6.28;;;;;;;3.89;100.00;101226.84;5094690;28;20020;-80
2021/03/27 01:15:15;;;;;;;19.42;6.00;;;;;;;3.98;100.00;101218.44;5092487;28;20127;-76
2021/03/27 01:17:51;;;;;;;18.40;4.95;;;;;;;4.04;100.00;101202.97;5094797;28;20021;-81
2021/03/27 01:20:21;;;;;;;22.88;7.15;;;;;;;3.91;100.00;101200.72;5093850;28;20085;-81
2021/03/27 01:22:48;;;;;;;18.95;5.32;;;;;;;3.88;100.00;101205.84;5095134;28;20028;-81
2021/03/27 01:25:20;;;;;;;21.23;6.57;;;;;;;3.80;100.00;101211.69;5075854;28;20093;-81
2021/03/27 01:28:20;;;;;;;20.60;6.15;;;;;;;3.78;100.00;101220.31;5092295;28;20032;-77
2021/03/27 01:31:11;;;;;;;22.67;6.53;;;;;;;3.83;100.00;101209.19;5094271;28;20122;-80
2021/03/27 01:33:58;;;;;;;22.10;5.97;;;;;;;3.89;100.00;101226.84;5091600;28;20445;-78
2021/03/27 01:36:35;;;;;;;22.27;5.97;;;;;;;4.00;100.00;101232.47;5093349;28;20043;-73
2021/03/27 01:39:09;;;;;;;22.98;6.70;;;;;;;3.96;100.00;101241.03;5093219;28;20028;-81
2021/03/27 01:41:57;;;;;;;19.90;5.63;;;;;;;3.99;100.00;101233.28;5094502;28;20028;-80
2021/03/27 01:44:53;;;;;;;22.23;6.47;;;;;;;3.95;100.00;101239.25;5091458;28;20024;-81
2021/03/27 01:47:40;;;;;;;22.50;6.88;;;;;;;3.91;100.00;101239.97;5094462;28;20032;-72
2021/03/27 01:50:37;;;;;;;22.17;6.90;;;;;;;3.89;100.00;101239.00;5093978;28;20063;-81
2021/03/27 01:53:42;;;;;;;21.88;6.68;;;;;;;3.84;100.00;101247.59;5091851;28;20432;-81
2021/03/27 01:56:36;;;;;;;23.00;7.28;;;;;;;3.79;100.00;101254.34;5007129;28;20112;-80
2021/03/27 01:59:13;;;;;;;21.30;6.38;;;;;;;3.81;100.00;101250.06;5009184;28;20034;-70
2021/03/27 02:01:50;;;;;;;24.05;6.55;;;;;;;3.75;100.00;101257.69;5010947;28;20069;-79
2021/03/27 02:04:33;;;;;;;23.05;6.90;;;;;;;3.78;100.00;101252.56;5010792;28;20476;-78
2021/03/27 02:07:08;;;;;;;;;;;;;;;3.80;99.93;101255.25;5006447;28;20049;-72
2021/03/27 02:09:48;;;;;;;23.85;6.88;;;;;;;3.68;100.00;101253.03;5010865;28;19914;-73
2021/03/27 02:12:37;;;;;;;24.17;7.15;;;;;;;3.58;100.00;101266.59;5007431;28;20033;-75
2021/03/27 02:15:10;;;;;;;22.67;6.97;;;;;;;3.59;100.00;101258.81;5009061;28;20021;-69
2021/03/27 02:17:53;;;;;;;23.10;6.45;;;;;;;3.59;100.00;101256.19;5006387;28;20104;-69
2021/03/27 02:20:49;;;;;;;24.67;7.65;;;;;;;3.58;100.00;101256.13;5010033;28;20053;-70
2021/03/27 02:23:47;;;;;;;26.73;8.13;;;;;;;3.54;100.00;101262.97;5006830;28;20515;-73
2021/03/27 02:26:31;;;;;;;21.88;5.10;;;;;;;3.60;99.81;101273.66;5004996;28;20052;-73
2021/03/27 02:29:03;;;;;;;17.67;4.68;;;;;;;3.63;99.95;101257.22;5010052;28;20125;-71
2021/03/27 02:31:38;;;;;;;23.05;6.03;;;;;;;3.69;99.37;101265.28;5008455;28;20042;-70
2021/03/27 02:34:23;;;;;;;20.73;6.03;;;;;;;3.56;100.00;101265.66;5089691;28;20109;-73
2021/03/27 02:37:07;;;;;;;23.23;6.47;;;;;;;3.57;100.00;101267.41;5093759;28;20042;-68
2021/03/27 02:39:50;;;;;;;24.65;7.28;;;;;;;3.52;100.00;101262.00;5091258;28;20027;-73
2021/03/27 02:42:24;;;;;;;24.08;7.43;;;;;;;3.53;100.00;101273.38;5092849;28;20032;-75
2021/03/27 02:44:53;;;;;;;24.20;6.68;;;;;;;3.52;100.00;101272.47;5092015;28;20482;-72
2021/03/27 02:47:35;;;;;;;24.98;7.95;;;;;;;3.50;100.00;101279.38;5092503;28;20020;-73
2021/03/27 02:50:26;;;;;;;23.63;7.18;;;;;;;3.54;100.00;101278.66;5093780;28;20039;-69
2021/03/27 02:53:06;;;;;;;27.85;7.57;;;;;;;3.53;100.00;101270.75;5094673;28;20050;-68
2021/03/27 02:55:44;;;;;;;25.38;6.97;;;;;;;3.56;100.00;101286.56;5090618;28;20028;-74
2021/03/27 02:58:12;;;;;;;24.95;7.28;;;;;;;3.59;100.00;101277.09;5091711;28;20128;-67
2021/03/27 03:00:44;;;;;;;25.73;8.05;;;;;;;3.63;100.00;101288.59;5072906;28;20166;-79
2021/03/27 03:03:10;;;;;;;27.38;7.20;;;;;;;3.65;99.43;101286.91;5093022;28;20111;-76
2021/03/27 03:05:46;;;;;;;25.92;7.10;;;;;;;3.58;100.00;101277.97;5091753;28;20145;-72
2021/03/27 03:08:23;;;;;;;20.48;5.07;;;;;;;3.66;98.48;101284.38;5092569;28;20035;-68
2021/03/27 03:11:00;;;;;;;27.75;8.20;;;;;;;3.61;99.73;101291.16;5091408;28;20028;-70
2021/03/27 03:13:37;;;;;;;27.17;7.30;;;;;;;3.60;99.57;101291.09;5089320;28;20012;-70
2021/03/27 03:16:30;;;;;;;26.60;7.55;;;;;;;3.66;99.77;101286.09;5091553;28;20482;-74
2021/03/27 03:19:23;;;;;;;25.65;6.63;;;;;;;3.70;97.79;101288.00;5094291;28;20020;-72
2021/03/27 03:22:00;;;;;;;23.77;6.53;;;;;;;3.73;97.50;101290.75;5091143;28;20032;-76
2021/03/27 03:24:52;;;;;;;22.73;6.70;;;;;;;3.73;97.39;101290.75;5072466;28;20503;-75
2021/03/27 03:27:31;;;;;;;28.30;7.28;;;;;;;3.70;98.28;101303.69;5091990;28;20027;-70
2021/03/27 03:30:24;;;;;;;23.67;6.28;;;;;;;3.81;96.87;101299.75;5094636;28;20024;-67
2021/03/27 03:33:24;;;;;;;23.88;6.88;;;;;;;3.87;96.38;101322.66;5091442;28;20058;-71
2021/03/27 03:36:10;;;;;;;24.98;5.85;;;;;;;3.91;97.62;101350.72;5091773;28;20020;-76
2021/03/27 03:39:19;;;;;;;22.05;4.50;;;;;;;3.67;99.94;101363.72;5088838;28;20027;-76
2021/03/27 03:42:14;;;;;;;20.60;4.63;;;;;;;3.39;100.00;101338.16;4973704;28;20038;-79
2021/03/27 03:44:42;;;;;;;20.38;4.70;;;;;;;3.40;100.00;101337.34;4912832;29;20044;-78
2021/03/27 03:47:10;;;;;;;19.00;4.57;;;;;;;3.44;100.00;101329.69;4912348;29;20048;-76
2021/03/27 03:49:41;;;;;;;22.08;5.20;;;;;;;3.42;100.00;101331.34;4912147;29;20036;-72
2021/03/27 03:52:34;;;;;;;21.52;5.47;;;;;;;3.42;100.00;101341.81;4912323;29;20058;-79
2021/03/27 04:12:02;;;;;;;20.02;5.63;;;;;;;3.53;96.69;101346.56;5006732;28;20399;-70
2021/03/27 04:15:02;;;;;;;21.08;5.93;;;;;;;3.57;94.89;101359.84;5005323;28;20042;-67
2021/03/27 04:17:40;;;;;;;20.63;6.10;;;;;;;3.55;95.81;101355.34;5002772;28;20026;-68
2021/03/27 04:20:17;;;;;;;19.83;5.85;;;;;;;3.53;95.58;101354.41;5000568;28;20574;-67
2021/03/27 04:22:55;;;;;;;19.00;4.63;;;;;;;3.47;94.21;101366.41;5006736;28;20041;-68
2021/03/27 04:25:26;;;;;;;18.70;4.88;;;;;;;3.54;94.97;101372.78;5002653;28;20065;-67
2021/03/27 04:28:34;;;;;;;18.75;4.78;;;;;;;3.41;96.20;101376.59;5004420;28;20048;-68
2021/03/27 04:31:17;;;;;;;19.42;4.97;;;;;;;3.40;97.02;101374.81;5016903;28;20046;-67
2021/03/27 04:33:53;;;;;;;21.05;6.25;;;;;;;3.41;97.81;101376.59;5015835;28;20065;-68
2021/03/27 04:36:25;;;;;;;23.50;7.10;;;;;;;3.53;97.22;101370.09;5012030;28;20521;-68
2021/03/27 04:39:00;;;;;;;23.27;6.32;;;;;;;3.59;98.02;101368.63;5012287;28;20034;-69
2021/03/27 04:41:52;;;;;;;22.65;6.82;;;;;;;3.53;99.06;101373.59;5016466;28;20073;-67
2021/03/27 04:44:36;;;;;;;25.40;7.78;;;;;;;3.60;99.20;101382.59;5015479;28;20034;-68
2021/03/27 04:47:24;;;;;;;25.23;7.82;;;;;;;3.56;100.00;101397.25;5016859;28;20046;-67
2021/03/27 04:50:42;;;;;;;28.20;9.25;;;;;;;3.49;100.00;101388.28;5011846;28;20037;-68
2021/03/27 04:53:21;;;;;;;27.83;7.40;;;;;;;3.53;100.00;101398.88;4940014;29;20054;-66
2021/03/27 04:56:02;;;;;;;28.85;7.90;;;;;;;3.51;100.00;101400.50;4937842;29;20044;-67
2021/03/27 04:58:39;;;;;;;25.80;6.93;;;;;;;3.53;100.00;101407.59;4936004;29;20035;-67
2021/03/27 05:01:23;;;;;;;24.60;6.13;;;;;;;3.63;100.00;101409.75;4938818;29;20048;-67
2021/03/27 05:04:21;;;;;;;28.85;7.40;;;;;;;3.62;100.00;101400.13;4937716;29;20046;-66
2021/03/27 05:07:18;;;;;;;28.20;8.18;;;;;;;3.67;99.21;101410.78;4966778;28;20089;-66
2021/03/27 05:10:17;;;;;;;25.33;6.30;;;;;;;3.86;96.73;101401.97;4967495;28;20054;-66
2021/03/27 05:13:10;;;;;;;27.35;5.35;;;;;;;3.79;98.49;101413.03;4954690;28;20047;-66
2021/03/27 05:15:54;;;;;;;17.55;3.80;;;;;;;3.79;97.75;101416.50;4954875;29;20034;-67
2021/03/27 05:18:36;;;;;;;26.90;6.05;;;;;;;3.77;100.00;101433.88;4954920;29;20031;-67
2021/03/27 05:21:13;;;;;;;21.23;4.70;;;;;;;3.90;98.11;101444.84;4954825;29;20051;-66
2021/03/27 05:23:52;;;;;;;18.50;4.72;;;;;;;3.42;93.76;101466.34;4954872;29;20066;-67
2021/03/27 05:27:13;;;;;;;19.92;4.35;;;;;;;3.09;99.91;101449.28;4956946;28;20494;-67
2021/03/27 05:29:48;;;;;;;19.38;4.30;;;;;;;2.78;99.81;101445.28;4895709;29;20044;-68
2021/03/27 05:32:19;;;;;;;21.83;4.80;;;;;;;2.68;100.00;101453.53;4897666;29;20052;-69
2021/03/27 05:34:52;;;;;;;23.33;5.20;;;;;;;2.68;100.00;101443.09;4897292;29;20562;-68
2021/03/27 05:37:48;;;;;;;26.38;6.18;;;;;;;2.79;100.00;101452.28;4897737;29;20032;-68
2021/03/27 05:40:38;;;;;;;26.25;7.43;;;;;;;2.94;100.00;101495.59;4897431;29;20127;-68
2021/03/27 05:43:33;;;;;;;22.08;4.53;;;;;;;3.02;100.00;101542.97;4894391;29;20171;-68
2021/03/27 05:46:42;;;;;;;13.85;2.70;;;;;;;2.00;99.06;101527.66;4912030;28;20935;-68
2021/03/27 05:49:41;;;;;;;14.20;2.83;;;;;;;1.60;100.00;101520.41;4971572;28;20059;-68
2021/03/27 05:52:26;;;;;;;10.07;2.47;;;;;;;1.32;100.00;101530.28;4971046;28;20366;-68
2021/03/27 05:55:25;;;;;;;14.32;2.95;;;;;;;1.25;100.00;101535.97;4973625;28;20038;-68
2021/03/27 05:58:13;;;;;;;16.00;3.25;;;;;;;1.27;100.00;101539.59;4972734;28;20535;-68
2021/03/27 06:00:56;;;;;;;17.10;3.35;;;;;;;1.17;100.00;101540.78;4971018;28;20041;-68
2021/03/27 06:03:40;;;;;;;16.83;3.70;;;;;;;1.15;100.00;101551.94;4989330;28;20392;-69
2021/03/27 06:06:36;;;;;;;16.95;3.55;;;;;;;1.15;100.00;101557.16;4969821;28;20039;-68
2021/03/27 06:09:24;;;;;;;16.70;3.50;;;;;;;1.14;100.00;101553.66;4969240;28;20049;-67
2021/03/27 06:12:32;;;;;;;18.02;3.08;;;;;;;1.15;100.00;101552.84;4972852;28;20039;-68
2021/03/27 06:15:24;;;;;;;14.15;2.75;;;;;;;1.23;100.00;101554.97;5004785;28;20041;-68
2021/03/27 06:18:23;;;;;;;17.20;3.60;;;;;;;1.23;100.00;101561.06;5000741;28;20472;-68
2021/03/27 06:21:05;;;;;;;19.63;3.33;;;;;;;1.23;100.00;101563.69;5000374;28;20051;-68
2021/03/27 06:23:56;;;;;;;15.63;3.20;;;;;;;1.23;100.00;101570.59;5003615;28;20050;-68
2021/03/27 06:26:55;;;;;;;17.60;3.58;;;;;;;1.25;100.00;101574.19;5000560;28;20106;-68
2021/03/27 06:29:24;;;;;;;18.23;3.58;;;;;;;1.26;100.00;101570.75;5000151;28;20042;-68
2021/03/27 06:32:26;;;;;;;16.73;3.70;;;;;;;1.25;100.00;101580.28;5002731;28;20485;-68
2021/03/27 06:35:22;;;;;;;22.83;4.20;;;;;;;1.24;100.00;101582.78;5000508;28;20037;-69
2021/03/27 06:38:15;;;;;;;19.65;3.60;;;;;;;1.31;100.00;101585.84;5004190;28;20030;-71
2021/03/27 06:40:49;;;;;;;23.30;4.18;;;;;;;1.45;100.00;101589.16;5005242;28;20109;-74
2021/03/27 06:43:55;;;;;;;21.17;4.25;;;;;;;1.64;100.00;101591.03;5003156;28;20033;-74
2021/03/27 06:46:29;;;;;;;21.45;4.30;;;;;;;1.73;100.00;101591.53;4942736;29;20099;-74
2021/03/27 06:49:29;;;;;;;20.10;4.22;;;;;;;1.80;100.00;101595.34;4944862;29;20043;-77
2021/03/27 06:52:27;;;;;;;21.05;3.97;;;;;;;1.97;100.00;101596.22;4976035;28;20041;-71
2021/03/27 06:55:28;;;;;;;18.75;3.85;;;;;;;2.08;100.00;101600.28;4924690;29;20055;-72
2021/03/27 06:57:53;;;;;;;21.88;4.38;;;;;;;2.15;100.00;101596.25;4920030;29;20050;-74
2021/03/27 07:00:33;;;;;;;22.70;4.72;;;;;;;2.19;100.00;101605.13;4926821;29;20032;-73
2021/03/27 07:03:26;;;;;;;20.02;4.38;;;;;;;2.28;100.00;101609.91;4925132;29;20786;-72
2021/03/27 07:06:16;;;;;;;23.15;5.05;;;;;;;2.29;100.00;101607.38;4917746;29;20130;-73
2021/03/27 07:09:19;;;;;;;21.35;5.15;;;;;;;2.35;100.00;101609.41;4921397;29;20062;-73
2021/03/27 07:12:09;;;;;;;20.23;5.15;;;;;;;2.46;100.00;101612.53;4920358;29;20055;-71
2021/03/27 07:15:13;;;;;;;26.10;5.00;;;;;;;2.66;100.00;101627.47;4920707;29;20039;-72
2021/03/27 07:17:56;;;;;;;23.38;5.03;;;;;;;2.85;100.00;101628.38;4921721;29;20068;-72
2021/03/27 07:20:40;;;;;;;24.85;4.95;;;;;;;2.96;100.00;101633.28;4922910;29;20043;-70
2021/03/27 07:23:44;;;;;;;26.15;5.78;;;;;;;3.20;100.00;101634.38;4970110;28;20485;-72
2021/03/27 07:26:57;;;;;;;26.65;5.50;;;;;;;3.37;100.00;101643.91;4968457;28;20035;-70
2021/03/27 07:29:53;;;;;;;23.70;5.18;;;;;;;3.56;100.00;101647.38;4967893;28;20098;-70
2021/03/27 07:32:43;;;;;;;29.77;5.93;;;;;;;3.77;100.00;101648.34;4971195;28;20495;-70
2021/03/27 07:35:30;;;;;;;29.02;5.93;;;;;;;4.02;100.00;101659.91;4984889;28;20080;-73
2021/03/27 07:38:18;;;;;;;32.22;6.13;;;;;;;4.13;100.00;101649.91;4987428;28;20055;-75
2021/03/27 07:40:57;;;;;;;24.63;5.72;;;;;;;4.24;98.69;101659.13;4985710;28;20389;-74
2021/03/27 07:43:35;;;;;;;25.35;5.80;;;;;;;4.43;98.47;101659.91;4968645;28;20465;-73
2021/03/27 07:46:27;;;;;;;27.67;5.05;;;;;;;4.75;92.43;101663.88;4984766;28;20022;-73
2021/03/27 07:49:13;;;;;;;24.75;4.78;;;;;;;4.97;89.20;101659.50;4969590;28;20038;-75
2021/03/27 07:51:51;;;;;;;25.70;4.75;;;;;;;5.11;89.05;101666.19;5000480;28;20581;-73
2021/03/27 07:54:42;;;;;;;25.25;4.50;;;;;;;5.12;81.09;101674.94;4968883;28;20026;-75
2021/03/27 07:57:25;;;;;;;24.80;4.53;;;;;;;4.94;79.29;101664.63;4977180;28;20024;-75
2021/03/27 08:00:20;;;;;;;23.67;4.60;;;;;;;4.85;81.91;101668.66;4974172;28;20477;-75
2021/03/27 08:03:13;;;;;;;25.35;4.68;;;;;;;4.77;78.17;101674.41;4991183;28;20113;-76
2021/03/27 08:06:02;;;;;;;25.67;4.70;;;;;;;4.68;79.44;101690.63;4973198;28;20084;-74
2021/03/27 08:08:48;;;;;;;26.48;4.70;;;;;;;4.58;82.18;101704.16;4973642;28;20168;-74
2021/03/27 08:11:47;;;;;;;24.25;5.70;;;;;;;4.40;82.94;101699.94;4969325;28;20435;-74
2021/03/27 08:14:12;;;;;;;24.65;5.65;;;;;;;4.33;84.96;101701.38;4976549;28;20038;-75
2021/03/27 08:16:59;;;;;;;25.60;6.55;;;;;;;4.38;81.12;101706.81;4985893;28;20027;-75
2021/03/27 08:19:46;;;;;;;25.40;5.53;;;;;;;4.36;83.97;101718.94;5003539;28;20030;-76
2021/03/27 08:22:42;;;;;;;28.77;6.93;;;;;;;4.40;86.08;101728.75;4968762;28;20035;-76
2021/03/27 08:25:56;;;;;;;30.58;8.00;;;;;;;4.53;86.00;101732.78;4996066;28;20035;-74
2021/03/27 08:28:40;;;;;;;;;;;;;;;4.90;81.40;101734.34;4983737;28;20103;-74
2021/03/27 08:31:27;;;;;;;24.60;5.93;;;;;;;4.94;81.92;101745.84;4975664;28;20319;-74
2021/03/27 08:34:11;;;;;;;26.98;5.88;;;;;;;5.27;77.85;101762.06;4969425;28;20019;-71
2021/03/27 08:36:48;;;;;;;22.15;4.45;;;;;;;5.30;76.57;101751.72;4968325;28;20477;-72
2021/03/27 08:39:31;;;;;;;18.50;3.83;;;;;;;5.09;71.35;101767.44;4982013;28;20038;-73
2021/03/27 08:42:34;;;;;;;22.50;3.72;;;;;;;4.81;70.48;101782.00;4984337;28;20027;-72
2021/03/27 08:45:33;;;;;;;21.35;4.00;;;;;;;4.79;71.15;101788.91;4983689;28;20043;-69
2021/03/27 08:48:17;;;;;;;21.08;4.10;;;;;;;4.79;72.41;101802.03;4971185;28;20469;-69
2021/03/27 08:50:57;;;;;;;20.15;3.92;;;;;;;4.83;73.57;101801.28;4988182;28;20069;-69
2021/03/27 08:53:50;;;;;;;23.17;4.45;;;;;;;4.92;73.00;101799.91;4987813;28;20050;-69
2021/03/27 08:57:00;;;;;;;17.80;3.38;;;;;;;5.46;72.38;101800.44;4982020;28;20123;-73
2021/03/27 08:59:55;;;;;;;20.80;3.38;;;;;;;5.70;68.99;101805.75;4987972;28;20058;-72
2021/03/27 09:02:27;;;;;;;20.13;3.60;;;;;;;5.99;70.46;101799.88;4990705;28;20063;-71
2021/03/27 09:05:25;;;;;;;19.30;3.17;;;;;;;6.14;66.91;101803.06;4971866;28;20030;-73
2021/03/27 09:08:16;;;;;;;22.08;3.92;;;;;;;6.20;67.58;101802.41;4975076;28;20098;-76
2021/03/27 09:11:13;;;;;;;17.40;3.10;;;;;;;6.54;65.57;101817.69;4975603;28;20058;-75
2021/03/27 09:13:47;;;;;;;23.23;3.38;;;;;;;7.06;66.39;101815.13;4970100;28;20043;-74
2021/03/27 09:16:50;;;;;;;18.90;3.70;;;;;;;7.43;64.84;101814.63;4988350;28;20027;-72
2021/03/27 09:19:33;;;;;;;15.93;2.80;;;;;;;7.38;62.09;101820.56;4971295;28;20027;-72
2021/03/27 09:22:17;;;;;;;;;;;;;;;7.45;62.98;101826.06;4971257;28;20045;-75
2021/03/27 09:24:51;;;;;;;18.10;3.60;;;;;;;8.01;60.74;101834.00;5060597;28;19922;-73
2021/03/27 09:27:31;;;;;;;20.63;3.58;;;;;;;8.50;61.39;101841.59;4991059;28;20027;-72
2021/03/27 09:30:24;;;;;;;21.40;3.60;;;;;;;8.59;58.20;101849.78;4986563;28;20374;-70
2021/03/27 09:32:53;;;;;;;;;;;;;;;8.53;57.26;101846.94;4970430;28;20038;-73
2021/03/27 09:35:28;;;;;;;22.38;3.95;;;;;;;8.67;59.23;101848.22;4995967;28;19922;-75
2021/03/27 09:38:00;;;;;;;19.38;4.20;;;;;;;8.74;55.39;101859.84;4984224;28;20380;-77
2021/03/27 09:40:46;;;;;;;19.17;3.90;;;;;;;8.59;56.69;101856.78;4980523;28;20032;-75
2021/03/27 09:43:34;;;;;;;19.67;3.63;;;;;;;8.80;55.40;101870.56;4987755;28;20042;-78
2021/03/27 09:46:03;;;;;;;19.17;3.55;;;;;;;8.79;55.34;101868.75;4986928;28;20056;-75
2021/03/27 09:48:46;;;;;;;18.23;3.22;;;;;;;7.87;58.50;101872.16;4971977;28;20033;-75
2021/03/27 09:51:31;;;;;;;20.35;3.90;;;;;;;6.58;67.69;101885.28;4977963;28;20031;-74
2021/03/27 09:54:07;;;;;;;20.92;3.88;;;;;;;5.17;75.89;101897.13;4971846;28;20031;-75
2021/03/27 09:56:37;;;;;;;20.52;4.10;;;;;;;5.15;81.25;101890.88;4990327;28;20023;-75
2021/03/27 09:59:27;;;;;;;24.52;4.55;;;;;;;6.16;79.88;101902.91;5060418;28;20035;-75
2021/03/27 10:02:09;;;;;;;20.98;4.07;;;;;;;6.78;72.62;101914.03;4969317;28;20121;-73
2021/03/27 10:05:01;;;;;;;20.45;3.90;;;;;;;7.12;65.87;101916.16;4968970;28;20049;-77
2021/03/27 10:07:42;;;;;;;17.80;3.75;;;;;;;7.40;65.65;101917.13;4970737;28;20955;-73
2021/03/27 10:10:38;;;;;;;21.52;3.45;;;;;;;6.82;64.72;101921.19;4969076;28;20047;-75
2021/03/27 10:13:14;;;;;;;19.63;3.20;;;;;;;6.27;64.72;101933.13;4988037;28;20029;-75
2021/03/27 10:15:51;;;;;;;19.27;3.75;;;;;;;6.11;66.93;101971.00;4987736;28;20030;-79
2021/03/27 10:18:35;;;;;;;17.08;3.25;;;;;;;6.95;64.97;101957.59;4984972;28;20030;-77
2021/03/27 10:21:15;;;;;;;17.60;3.60;;;;;;;7.03;65.68;101947.34;5002328;28;20060;-74
2021/03/27 10:24:06;;;;;;;20.05;3.63;;;;;;;6.78;65.86;101940.31;4971204;28;20031;-74
2021/03/27 10:27:07;;;;;;;18.95;3.78;;;;;;;6.60;66.43;101961.53;4986723;28;20027;-74
2021/03/27 10:29:41;;;;;;;18.50;3.45;;;;;;;8.11;60.24;101944.88;4985489;28;20038;-73
2021/03/27 10:32:47;;;;;;;20.73;3.50;;;;;;;9.22;60.29;101937.66;4968561;28;20038;-75
2021/03/27 10:35:47;;;;;;;16.50;3.25;;;;;;;9.88;53.12;101949.03;5003308;28;20038;-74
2021/03/27 10:38:50;;;;;;;11.40;2.72;;;;;;;9.38;53.48;101955.69;4984106;28;20029;-71
2021/03/27 10:41:35;;;;;;;18.73;3.28;;;;;;;9.29;51.30;101958.09;4987148;28;20032;-71
2021/03/27 10:44:09;;;;;;;19.33;3.08;;;;;;;7.92;52.62;101974.97;4984907;28;20035;-71
2021/03/27 10:46:52;;;;;;;18.42;3.33;;;;;;;7.74;53.80;101991.94;4970548;28;20026;-70
2021/03/27 10:49:46;;;;;;;19.20;3.40;;;;;;;7.72;50.21;102003.25;4984337;28;20020;-70
2021/03/27 10:52:35;;;;;;;;;;;;;;;8.35;48.98;101952.66;4988426;28;20099;-70
2021/03/27 10:55:19;;;;;;;15.45;2.60;;;;;;;8.43;47.13;101958.16;4997765;28;19925;-71
2021/03/27 10:58:18;;;;;;;16.48;3.10;;;;;;;7.66;49.23;101983.78;4973748;28;20023;-70
2021/03/27 11:01:10;;;;;;;16.13;2.67;;;;;;;7.67;48.87;102001.38;4969725;28;20485;-71
2021/03/27 11:03:44;;;;;;;16.38;2.83;;;;;;;9.18;45.42;101996.47;4970832;28;20039;-70
2021/03/27 11:06:21;;;;;;;13.65;2.47;;;;;;;8.64;46.35;102006.31;4979200;28;20033;-71
2021/03/27 11:09:05;;;;;;;15.90;2.63;;;;;;;8.14;45.81;102005.53;4968860;28;20405;-70
2021/03/27 11:11:33;;;;;;;17.98;2.80;;;;;;;9.18;47.00;102022.84;4995644;28;20046;-71
2021/03/27 11:14:15;;;;;;;12.25;2.50;;;;;;;10.61;43.83;102009.81;4970532;28;20235;-70
2021/03/27 11:17:18;;;;;;;15.30;2.30;;;;;;;11.49;40.76;102033.72;4969930;28;20091;-70
2021/03/27 11:20:02;;;;;;;16.17;2.50;;;;;;;11.06;41.22;102034.59;4994689;28;20378;-71
2021/03/27 11:22:33;;;;;;;14.45;2.40;;;;;;;10.23;44.90;102033.53;4995654;28;20390;-70
2021/03/27 11:25:24;;;;;;;18.25;2.58;;;;;;;9.79;44.24;102018.34;4993905;28;20146;-70
2021/03/27 11:28:14;;;;;;;12.30;2.17;;;;;;;10.20;41.62;102028.19;4977863;28;20109;-70
2021/03/27 11:30:49;;;;;;;11.07;2.30;;;;;;;10.78;39.51;102010.19;4995974;28;20045;-71
2021/03/27 11:33:22;;;;;;;14.63;2.60;;;;;;;11.34;39.49;102041.34;4994026;28;20038;-70
2021/03/27 11:36:03;;;;;;;15.75;2.30;;;;;;;10.89;39.15;102042.16;4996928;28;20065;-70
2021/03/27 11:38:43;;;;;;;11.50;2.10;;;;;;;11.07;40.57;102046.97;4993512;28;20105;-71
2021/03/27 11:41:26;;;;;;;18.55;2.88;;;;;;;10.98;40.85;102066.19;4996807;28;20597;-70
2021/03/27 11:44:03;;;;;;;14.00;2.58;;;;;;;11.50;42.49;102056.69;4995854;28;20406;-70
2021/03/27 11:46:38;;;;;;;15.43;2.45;;;;;;;10.84;39.62;102073.81;4996756;28;20400;-70
2021/03/27 11:49:12;;;;;;;13.48;2.50;;;;;;;9.72;40.98;102070.09;4994289;28;20531;-70
2021/03/27 11:51:44;;;;;;;15.25;2.42;;;;;;;9.95;41.23;102046.06;4997636;28;20465;-70
2021/03/27 11:54:09;;;;;;;13.40;2.40;;;;;;;10.25;40.07;102063.53;4995271;28;20517;-70
2021/03/27 11:56:52;;;;;;;11.77;2.50;;;;;;;11.38;39.38;102082.03;5005229;28;20050;-70
2021/03/27 12:02:36;;;;;;;18.50;3.03;;;;;;;9.49;43.85;102080.00;4969526;28;20045;-70
2021/03/27 12:05:20;;;;;;;19.38;3.20;;;;;;;8.77;46.73;102096.34;4969451;28;20031;-71
2021/03/27 12:08:16;;;;;;;17.38;3.05;;;;;;;10.41;43.17;102110.69;4970006;28;20433;-70
2021/03/27 12:11:02;;;;;;;18.17;3.08;;;;;;;11.02;41.51;102120.94;4998686;28;20050;-70
2021/03/27 12:13:49;;;;;;;19.00;3.10;;;;;;;11.01;41.78;102110.31;4968117;28;20106;-71
2021/03/27 12:16:36;;;;;;;17.35;2.80;;;;;;;10.09;44.73;102126.56;4969594;28;20026;-70
2021/03/27 12:19:31;;;;;;;18.88;3.05;;;;;;;9.32;44.16;102119.13;4969821;28;20035;-70
2021/03/27 12:22:01;;;;;;;17.75;2.70;;;;;;;8.90;48.05;102109.94;4970191;28;20050;-70
2021/03/27 12:24:30;;;;;;;16.88;3.00;;;;;;;9.13;47.04;102145.78;5000567;28;20024;-70
2021/03/27 12:27:08;;;;;;;16.73;3.17;;;;;;;9.71;47.46;102130.78;4972563;28;20029;-70
2021/03/27 12:29:52;;;;;;;17.42;3.30;;;;;;;9.06;49.26;102136.81;4995957;28;20455;-71
2021/03/27 12:32:34;;;;;;;14.25;2.78;;;;;;;10.45;47.08;102167.16;5017956;28;20111;-70
2021/03/27 12:35:25;;;;;;;16.75;2.75;;;;;;;11.39;42.37;102149.97;4973122;28;20035;-70
2021/03/27 12:38:06;;;;;;;18.73;3.00;;;;;;;11.81;41.16;102143.78;5001730;28;20016;-70
2021/03/27 12:40:58;;;;;;;16.58;3.00;;;;;;;12.64;41.00;102150.66;4978835;28;20034;-70
2021/03/27 12:43:29;;;;;;;18.25;2.90;;;;;;;12.72;39.48;102130.41;4975253;28;20164;-70
2021/03/27 12:46:11;;;;;;;14.63;2.78;;;;;;;12.74;38.96;102138.41;4973692;28;20033;-70
2021/03/27 12:49:02;;;;;;;18.38;2.70;;;;;;;13.23;39.05;102122.31;4972673;28;20109;-71
2021/03/27 12:51:36;;;;;;;16.80;2.88;;;;;;;11.26;41.51;102159.44;4986386;28;20061;-71
2021/03/27 12:54:22;;;;;;;19.00;3.20;;;;;;;9.76;44.94;102164.41;4972867;28;20035;-70
2021/03/27 12:57:00;;;;;;;15.60;2.88;;;;;;;9.39;45.62;102150.13;4987612;28;20030;-73
2021/03/27 13:00:02;;;;;;;22.02;3.28;;;;;;;8.63;50.75;102180.25;4971600;28;20046;-69